sensor_id;sensor_type;location;lat;lon;timestamp;P1;durP1;ratioP1;P2;durP2;ratioP2
80746;SDS011;76868;50.218;14.322;2024-03-23T00:54:35;13.00;;;9.27;;
80746;SDS011;76868;50.218;14.322;2024-03-23T00:57:01;14.65;;;8.95;;
80746;SDS011;76868;50.218;14.322;2024-03-23T01:01:52;14.38;;;8.85;;
80746;SDS011;76868;50.218;14.322;2024-03-23T01:04:18;12.82;;;8.68;;
80746;SDS011;76868;50.218;14.322;2024-03-23T01:06:43;14.25;;;8.90;;
80746;SDS011;76868;50.218;14.322;2024-03-23T01:09:08;12.38;;;8.75;;
80746;SDS011;76868;50.218;14.322;2024-03-23T01:11:35;13.95;;;9.18;;
80746;SDS011;76868;50.218;14.322;2024-03-23T01:14:01;14.60;;;9.52;;
80746;SDS011;76868;50.218;14.322;2024-03-23T01:16:26;14.70;;;8.82;;
80746;SDS011;76868;50.218;14.322;2024-03-23T01:18:52;11.93;;;8.38;;
80746;SDS011;76868;50.218;14.322;2024-03-23T01:21:17;14.30;;;8.88;;
80746;SDS011;76868;50.218;14.322;2024-03-23T01:23:42;14.25;;;9.05;;
80746;SDS011;76868;50.218;14.322;2024-03-23T01:26:08;14.18;;;8.40;;
80746;SDS011;76868;50.218;14.322;2024-03-23T01:30:58;12.50;;;8.10;;
80746;SDS011;76868;50.218;14.322;2024-03-23T01:35:49;11.30;;;7.53;;
80746;SDS011;76868;50.218;14.322;2024-03-23T01:40:39;13.40;;;7.90;;
80746;SDS011;76868;50.218;14.322;2024-03-23T01:43:05;12.57;;;7.75;;
80746;SDS011;76868;50.218;14.322;2024-03-23T01:45:34;12.20;;;7.93;;
80746;SDS011;76868;50.218;14.322;2024-03-23T01:48:00;12.27;;;8.13;;
80746;SDS011;76868;50.218;14.322;2024-03-23T01:50:27;14.27;;;7.72;;
80746;SDS011;76868;50.218;14.322;2024-03-23T01:55:18;11.60;;;7.50;;
80746;SDS011;76868;50.218;14.322;2024-03-23T01:57:44;11.63;;;8.02;;
80746;SDS011;76868;50.218;14.322;2024-03-23T02:00:10;12.02;;;7.75;;
80746;SDS011;76868;50.218;14.322;2024-03-23T02:02:40;11.80;;;7.60;;
80746;SDS011;76868;50.218;14.322;2024-03-23T02:05:12;12.73;;;7.95;;
80746;SDS011;76868;50.218;14.322;2024-03-23T02:07:40;11.63;;;7.55;;
80746;SDS011;76868;50.218;14.322;2024-03-23T02:10:07;13.40;;;8.25;;
80746;SDS011;76868;50.218;14.322;2024-03-23T02:12:34;11.27;;;7.68;;
80746;SDS011;76868;50.218;14.322;2024-03-23T02:15:00;12.57;;;8.38;;
80746;SDS011;76868;50.218;14.322;2024-03-23T02:19:51;10.13;;;6.60;;
80746;SDS011;76868;50.218;14.322;2024-03-23T02:24:42;10.87;;;7.17;;
80746;SDS011;76868;50.218;14.322;2024-03-23T02:27:07;12.52;;;7.65;;
80746;SDS011;76868;50.218;14.322;2024-03-23T02:29:33;11.70;;;7.15;;
80746;SDS011;76868;50.218;14.322;2024-03-23T02:34:24;12.32;;;7.50;;
80746;SDS011;76868;50.218;14.322;2024-03-23T02:36:49;10.68;;;6.90;;
80746;SDS011;76868;50.218;14.322;2024-03-23T02:39:15;11.70;;;7.53;;
80746;SDS011;76868;50.218;14.322;2024-03-23T02:41:40;12.40;;;7.45;;
80746;SDS011;76868;50.218;14.322;2024-03-23T02:44:05;11.18;;;6.55;;
80746;SDS011;76868;50.218;14.322;2024-03-23T02:46:31;11.25;;;8.20;;
80746;SDS011;76868;50.218;14.322;2024-03-23T02:48:57;12.20;;;8.13;;
80746;SDS011;76868;50.218;14.322;2024-03-23T02:51:22;12.15;;;6.75;;
80746;SDS011;76868;50.218;14.322;2024-03-23T02:53:47;10.93;;;7.68;;
80746;SDS011;76868;50.218;14.322;2024-03-23T02:56:13;9.88;;;6.88;;
80746;SDS011;76868;50.218;14.322;2024-03-23T02:58:41;10.05;;;6.88;;
80746;SDS011;76868;50.218;14.322;2024-03-23T03:01:06;11.60;;;7.15;;
80746;SDS011;76868;50.218;14.322;2024-03-23T03:03:32;9.00;;;6.40;;
80746;SDS011;76868;50.218;14.322;2024-03-23T03:05:57;11.80;;;7.30;;
80746;SDS011;76868;50.218;14.322;2024-03-23T03:08:23;10.93;;;6.68;;
80746;SDS011;76868;50.218;14.322;2024-03-23T03:13:13;12.50;;;7.33;;
80746;SDS011;76868;50.218;14.322;2024-03-23T03:15:48;12.95;;;7.30;;
80746;SDS011;76868;50.218;14.322;2024-03-23T03:18:13;11.75;;;7.05;;
80746;SDS011;76868;50.218;14.322;2024-03-23T03:20:39;11.40;;;6.88;;
80746;SDS011;76868;50.218;14.322;2024-03-23T03:23:05;11.65;;;6.68;;
80746;SDS011;76868;50.218;14.322;2024-03-23T03:25:30;11.88;;;7.15;;
80746;SDS011;76868;50.218;14.322;2024-03-23T03:27:56;10.95;;;6.53;;
80746;SDS011;76868;50.218;14.322;2024-03-23T03:32:46;10.20;;;6.73;;
80746;SDS011;76868;50.218;14.322;2024-03-23T03:35:11;10.65;;;6.53;;
80746;SDS011;76868;50.218;14.322;2024-03-23T03:37:37;11.10;;;6.65;;
80746;SDS011;76868;50.218;14.322;2024-03-23T03:40:02;10.20;;;6.65;;
80746;SDS011;76868;50.218;14.322;2024-03-23T03:42:28;10.10;;;6.20;;
80746;SDS011;76868;50.218;14.322;2024-03-23T03:44:53;10.23;;;6.22;;
80746;SDS011;76868;50.218;14.322;2024-03-23T03:47:19;9.02;;;6.30;;
80746;SDS011;76868;50.218;14.322;2024-03-23T03:49:44;9.93;;;6.35;;
80746;SDS011;76868;50.218;14.322;2024-03-23T03:52:10;11.82;;;6.90;;
80746;SDS011;76868;50.218;14.322;2024-03-23T03:57:00;11.70;;;6.90;;
80746;SDS011;76868;50.218;14.322;2024-03-23T03:59:26;11.68;;;6.28;;
80746;SDS011;76868;50.218;14.322;2024-03-23T04:01:51;12.07;;;6.63;;
80746;SDS011;76868;50.218;14.322;2024-03-23T04:04:16;9.38;;;5.85;;
80746;SDS011;76868;50.218;14.322;2024-03-23T04:06:43;10.70;;;6.75;;
80746;SDS011;76868;50.218;14.322;2024-03-23T04:09:09;11.05;;;6.40;;
80746;SDS011;76868;50.218;14.322;2024-03-23T04:11:35;10.00;;;6.20;;
80746;SDS011;76868;50.218;14.322;2024-03-23T04:16:29;9.93;;;6.47;;
80746;SDS011;76868;50.218;14.322;2024-03-23T04:18:55;10.40;;;6.55;;
80746;SDS011;76868;50.218;14.322;2024-03-23T04:23:46;9.45;;;5.97;;
80746;SDS011;76868;50.218;14.322;2024-03-23T04:26:12;11.55;;;6.05;;
80746;SDS011;76868;50.218;14.322;2024-03-23T04:28:37;11.98;;;6.10;;
80746;SDS011;76868;50.218;14.322;2024-03-23T04:31:03;9.27;;;6.03;;
80746;SDS011;76868;50.218;14.322;2024-03-23T04:33:29;8.60;;;5.70;;
80746;SDS011;76868;50.218;14.322;2024-03-23T04:38:19;9.00;;;5.60;;
80746;SDS011;76868;50.218;14.322;2024-03-23T04:40:45;8.23;;;5.55;;
80746;SDS011;76868;50.218;14.322;2024-03-23T04:43:19;9.82;;;6.55;;
80746;SDS011;76868;50.218;14.322;2024-03-23T04:45:44;8.15;;;5.10;;
80746;SDS011;76868;50.218;14.322;2024-03-23T04:48:09;10.02;;;6.30;;
80746;SDS011;76868;50.218;14.322;2024-03-23T04:50:35;9.15;;;6.07;;
80746;SDS011;76868;50.218;14.322;2024-03-23T04:53:00;9.10;;;5.90;;
80746;SDS011;76868;50.218;14.322;2024-03-23T04:55:25;8.60;;;5.57;;
80746;SDS011;76868;50.218;14.322;2024-03-23T04:57:51;9.98;;;6.00;;
80746;SDS011;76868;50.218;14.322;2024-03-23T05:00:16;9.57;;;6.10;;
80746;SDS011;76868;50.218;14.322;2024-03-23T05:02:42;9.10;;;5.75;;
80746;SDS011;76868;50.218;14.322;2024-03-23T05:05:09;11.48;;;5.80;;
80746;SDS011;76868;50.218;14.322;2024-03-23T05:09:59;8.07;;;5.53;;
80746;SDS011;76868;50.218;14.322;2024-03-23T05:12:25;8.20;;;5.18;;
80746;SDS011;76868;50.218;14.322;2024-03-23T05:14:50;9.68;;;6.13;;
80746;SDS011;76868;50.218;14.322;2024-03-23T05:17:16;7.97;;;5.35;;
80746;SDS011;76868;50.218;14.322;2024-03-23T05:22:07;7.30;;;4.63;;
80746;SDS011;76868;50.218;14.322;2024-03-23T05:24:32;8.23;;;5.20;;
80746;SDS011;76868;50.218;14.322;2024-03-23T05:26:57;8.70;;;5.22;;
80746;SDS011;76868;50.218;14.322;2024-03-23T05:29:24;9.02;;;6.10;;
80746;SDS011;76868;50.218;14.322;2024-03-23T05:31:51;9.90;;;5.78;;
80746;SDS011;76868;50.218;14.322;2024-03-23T05:34:17;8.43;;;5.25;;
80746;SDS011;76868;50.218;14.322;2024-03-23T05:39:08;7.95;;;5.18;;
80746;SDS011;76868;50.218;14.322;2024-03-23T05:44:01;8.48;;;5.20;;
80746;SDS011;76868;50.218;14.322;2024-03-23T05:48:51;7.37;;;5.10;;
80746;SDS011;76868;50.218;14.322;2024-03-23T05:53:42;8.40;;;4.93;;
80746;SDS011;76868;50.218;14.322;2024-03-23T05:58:34;8.07;;;5.18;;
80746;SDS011;76868;50.218;14.322;2024-03-23T06:03:29;7.80;;;4.63;;
80746;SDS011;76868;50.218;14.322;2024-03-23T06:05:55;8.23;;;5.00;;
80746;SDS011;76868;50.218;14.322;2024-03-23T06:10:46;7.25;;;4.20;;
80746;SDS011;76868;50.218;14.322;2024-03-23T06:15:38;7.63;;;4.82;;
80746;SDS011;76868;50.218;14.322;2024-03-23T06:18:04;7.28;;;5.00;;
80746;SDS011;76868;50.218;14.322;2024-03-23T06:22:55;7.30;;;4.38;;
80746;SDS011;76868;50.218;14.322;2024-03-23T06:27:46;7.57;;;5.10;;
80746;SDS011;76868;50.218;14.322;2024-03-23T06:32:37;6.75;;;4.45;;
80746;SDS011;76868;50.218;14.322;2024-03-23T06:35:02;6.43;;;4.13;;
80746;SDS011;76868;50.218;14.322;2024-03-23T06:37:33;6.72;;;4.63;;
80746;SDS011;76868;50.218;14.322;2024-03-23T06:42:24;11.25;;;4.47;;
80746;SDS011;76868;50.218;14.322;2024-03-23T06:47:14;7.83;;;3.90;;
80746;SDS011;76868;50.218;14.322;2024-03-23T06:52:05;11.10;;;4.27;;
80746;SDS011;76868;50.218;14.322;2024-03-23T06:56:55;6.23;;;4.10;;
80746;SDS011;76868;50.218;14.322;2024-03-23T07:01:46;6.73;;;4.00;;
80746;SDS011;76868;50.218;14.322;2024-03-23T07:06:42;7.97;;;4.23;;
80746;SDS011;76868;50.218;14.322;2024-03-23T07:09:08;9.25;;;5.07;;
80746;SDS011;76868;50.218;14.322;2024-03-23T07:11:34;13.20;;;5.03;;
80746;SDS011;76868;50.218;14.322;2024-03-23T07:13:59;8.20;;;4.28;;
80746;SDS011;76868;50.218;14.322;2024-03-23T07:18:51;9.05;;;3.95;;
80746;SDS011;76868;50.218;14.322;2024-03-23T07:23:42;7.87;;;4.23;;
80746;SDS011;76868;50.218;14.322;2024-03-23T07:26:10;7.43;;;3.70;;
80746;SDS011;76868;50.218;14.322;2024-03-23T07:31:02;9.60;;;3.88;;
80746;SDS011;76868;50.218;14.322;2024-03-23T07:33:28;7.97;;;4.10;;
80746;SDS011;76868;50.218;14.322;2024-03-23T07:38:19;7.20;;;4.00;;
80746;SDS011;76868;50.218;14.322;2024-03-23T07:40:44;6.53;;;4.00;;
80746;SDS011;76868;50.218;14.322;2024-03-23T07:45:34;8.73;;;4.20;;
80746;SDS011;76868;50.218;14.322;2024-03-23T07:48:00;7.25;;;4.03;;
80746;SDS011;76868;50.218;14.322;2024-03-23T07:50:25;8.63;;;4.30;;
80746;SDS011;76868;50.218;14.322;2024-03-23T07:52:51;9.90;;;5.47;;
80746;SDS011;76868;50.218;14.322;2024-03-23T07:55:16;8.35;;;4.30;;
80746;SDS011;76868;50.218;14.322;2024-03-23T07:57:41;8.20;;;4.05;;
80746;SDS011;76868;50.218;14.322;2024-03-23T08:02:33;8.40;;;5.50;;
80746;SDS011;76868;50.218;14.322;2024-03-23T08:04:58;11.38;;;5.88;;
80746;SDS011;76868;50.218;14.322;2024-03-23T08:07:23;14.88;;;7.15;;
80746;SDS011;76868;50.218;14.322;2024-03-23T08:09:50;10.18;;;6.65;;
80746;SDS011;76868;50.218;14.322;2024-03-23T08:12:15;8.90;;;4.63;;
80746;SDS011;76868;50.218;14.322;2024-03-23T08:14:41;10.25;;;5.72;;
80746;SDS011;76868;50.218;14.322;2024-03-23T08:17:06;11.60;;;5.53;;
80746;SDS011;76868;50.218;14.322;2024-03-23T08:21:56;8.97;;;5.90;;
80746;SDS011;76868;50.218;14.322;2024-03-23T08:24:22;10.07;;;5.40;;
80746;SDS011;76868;50.218;14.322;2024-03-23T08:29:13;9.45;;;5.50;;
80746;SDS011;76868;50.218;14.322;2024-03-23T08:34:04;11.13;;;6.07;;
80746;SDS011;76868;50.218;14.322;2024-03-23T08:36:29;20.58;;;10.13;;
80746;SDS011;76868;50.218;14.322;2024-03-23T08:38:55;20.70;;;9.85;;
80746;SDS011;76868;50.218;14.322;2024-03-23T08:41:21;15.00;;;7.50;;
80746;SDS011;76868;50.218;14.322;2024-03-23T08:43:46;15.38;;;6.72;;
80746;SDS011;76868;50.218;14.322;2024-03-23T08:46:13;12.95;;;6.28;;
80746;SDS011;76868;50.218;14.322;2024-03-23T08:48:41;13.90;;;6.45;;
80746;SDS011;76868;50.218;14.322;2024-03-23T08:51:11;11.93;;;6.07;;
80746;SDS011;76868;50.218;14.322;2024-03-23T08:53:38;11.32;;;6.13;;
80746;SDS011;76868;50.218;14.322;2024-03-23T08:58:31;11.02;;;5.85;;
80746;SDS011;76868;50.218;14.322;2024-03-23T09:01:02;11.20;;;6.07;;
80746;SDS011;76868;50.218;14.322;2024-03-23T09:03:29;13.80;;;5.63;;
80746;SDS011;76868;50.218;14.322;2024-03-23T09:05:54;12.35;;;6.00;;
80746;SDS011;76868;50.218;14.322;2024-03-23T09:10:46;11.02;;;5.18;;
80746;SDS011;76868;50.218;14.322;2024-03-23T09:13:12;8.48;;;5.30;;
80746;SDS011;76868;50.218;14.322;2024-03-23T09:18:11;8.93;;;4.78;;
80746;SDS011;76868;50.218;14.322;2024-03-23T09:20:36;9.23;;;4.88;;
80746;SDS011;76868;50.218;14.322;2024-03-23T09:23:01;9.57;;;4.78;;
80746;SDS011;76868;50.218;14.322;2024-03-23T09:25:27;8.65;;;5.05;;
80746;SDS011;76868;50.218;14.322;2024-03-23T09:30:17;7.17;;;4.53;;
80746;SDS011;76868;50.218;14.322;2024-03-23T09:32:44;7.78;;;3.75;;
80746;SDS011;76868;50.218;14.322;2024-03-23T09:35:10;14.55;;;4.85;;
80746;SDS011;76868;50.218;14.322;2024-03-23T09:37:36;17.85;;;5.30;;
80746;SDS011;76868;50.218;14.322;2024-03-23T09:40:07;13.95;;;5.25;;
80746;SDS011;76868;50.218;14.322;2024-03-23T09:42:34;12.25;;;4.13;;
80746;SDS011;76868;50.218;14.322;2024-03-23T09:45:00;18.17;;;4.82;;
80746;SDS011;76868;50.218;14.322;2024-03-23T09:47:26;9.88;;;3.80;;
80746;SDS011;76868;50.218;14.322;2024-03-23T09:52:17;13.60;;;3.92;;
80746;SDS011;76868;50.218;14.322;2024-03-23T09:57:08;9.73;;;4.43;;
80746;SDS011;76868;50.218;14.322;2024-03-23T09:59:33;19.52;;;6.63;;
80746;SDS011;76868;50.218;14.322;2024-03-23T10:01:59;13.65;;;5.10;;
80746;SDS011;76868;50.218;14.322;2024-03-23T10:04:36;13.35;;;4.57;;
80746;SDS011;76868;50.218;14.322;2024-03-23T10:07:15;12.73;;;4.72;;
80746;SDS011;76868;50.218;14.322;2024-03-23T10:09:43;11.10;;;5.25;;
80746;SDS011;76868;50.218;14.322;2024-03-23T10:14:35;14.25;;;5.15;;
80746;SDS011;76868;50.218;14.322;2024-03-23T10:17:20;14.50;;;5.13;;
80746;SDS011;76868;50.218;14.322;2024-03-23T10:19:50;16.63;;;4.65;;
80746;SDS011;76868;50.218;14.322;2024-03-23T10:22:20;14.70;;;4.93;;
80746;SDS011;76868;50.218;14.322;2024-03-23T10:24:51;11.27;;;4.63;;
80746;SDS011;76868;50.218;14.322;2024-03-23T10:27:18;12.93;;;5.13;;
80746;SDS011;76868;50.218;14.322;2024-03-23T10:29:47;13.35;;;5.00;;
80746;SDS011;76868;50.218;14.322;2024-03-23T10:32:14;13.32;;;5.45;;
80746;SDS011;76868;50.218;14.322;2024-03-23T10:34:41;13.75;;;4.80;;
80746;SDS011;76868;50.218;14.322;2024-03-23T10:37:07;14.73;;;4.82;;
80746;SDS011;76868;50.218;14.322;2024-03-23T10:39:34;9.45;;;4.10;;
80746;SDS011;76868;50.218;14.322;2024-03-23T10:42:07;13.85;;;5.03;;
80746;SDS011;76868;50.218;14.322;2024-03-23T10:44:35;11.07;;;4.80;;
80746;SDS011;76868;50.218;14.322;2024-03-23T10:47:01;13.75;;;4.60;;
80746;SDS011;76868;50.218;14.322;2024-03-23T10:49:34;11.85;;;4.80;;
80746;SDS011;76868;50.218;14.322;2024-03-23T10:52:01;11.18;;;4.10;;
80746;SDS011;76868;50.218;14.322;2024-03-23T10:54:30;10.27;;;4.13;;
80746;SDS011;76868;50.218;14.322;2024-03-23T10:57:06;11.65;;;5.03;;
80746;SDS011;76868;50.218;14.322;2024-03-23T10:59:36;10.73;;;4.40;;
80746;SDS011;76868;50.218;14.322;2024-03-23T11:02:03;10.30;;;4.05;;
80746;SDS011;76868;50.218;14.322;2024-03-23T11:06:54;9.15;;;3.85;;
80746;SDS011;76868;50.218;14.322;2024-03-23T11:14:57;9.02;;;4.40;;
80746;SDS011;76868;50.218;14.322;2024-03-23T11:17:25;9.73;;;3.53;;
80746;SDS011;76868;50.218;14.322;2024-03-23T11:20:01;7.82;;;3.53;;
80746;SDS011;76868;50.218;14.322;2024-03-23T11:25:03;9.25;;;3.65;;
80746;SDS011;76868;50.218;14.322;2024-03-23T11:27:37;9.82;;;3.88;;
80746;SDS011;76868;50.218;14.322;2024-03-23T11:32:40;5.65;;;3.00;;
80746;SDS011;76868;50.218;14.322;2024-03-23T11:37:31;7.20;;;3.10;;
80746;SDS011;76868;50.218;14.322;2024-03-23T11:42:22;7.63;;;3.57;;
80746;SDS011;76868;50.218;14.322;2024-03-23T11:47:12;5.70;;;2.80;;
80746;SDS011;76868;50.218;14.322;2024-03-23T11:49:38;6.97;;;3.33;;
80746;SDS011;76868;50.218;14.322;2024-03-23T11:52:06;9.05;;;3.20;;
80746;SDS011;76868;50.218;14.322;2024-03-23T11:56:57;7.47;;;2.83;;
80746;SDS011;76868;50.218;14.322;2024-03-23T11:59:33;7.18;;;3.15;;
80746;SDS011;76868;50.218;14.322;2024-03-23T12:02:08;5.30;;;2.50;;
80746;SDS011;76868;50.218;14.322;2024-03-23T12:04:35;6.97;;;3.42;;
80746;SDS011;76868;50.218;14.322;2024-03-23T12:09:36;5.10;;;1.50;;
80746;SDS011;76868;50.218;14.322;2024-03-23T12:14:31;12.60;;;2.90;;
80746;SDS011;76868;50.218;14.322;2024-03-23T12:19:31;4.28;;;2.20;;
80746;SDS011;76868;50.218;14.322;2024-03-23T12:24:22;6.18;;;1.85;;
80746;SDS011;76868;50.218;14.322;2024-03-23T12:29:15;7.45;;;2.15;;
80746;SDS011;76868;50.218;14.322;2024-03-23T12:31:40;4.53;;;2.42;;
80746;SDS011;76868;50.218;14.322;2024-03-23T12:34:06;8.20;;;2.03;;
80746;SDS011;76868;50.218;14.322;2024-03-23T12:36:31;5.35;;;2.13;;
80746;SDS011;76868;50.218;14.322;2024-03-23T12:41:22;6.63;;;2.00;;
80746;SDS011;76868;50.218;14.322;2024-03-23T12:43:48;4.95;;;1.85;;
80746;SDS011;76868;50.218;14.322;2024-03-23T12:48:39;8.13;;;1.97;;
80746;SDS011;76868;50.218;14.322;2024-03-23T12:51:04;8.10;;;1.90;;
80746;SDS011;76868;50.218;14.322;2024-03-23T12:53:30;6.40;;;1.95;;
80746;SDS011;76868;50.218;14.322;2024-03-23T12:58:22;4.00;;;1.80;;
80746;SDS011;76868;50.218;14.322;2024-03-23T13:03:13;7.13;;;1.70;;
80746;SDS011;76868;50.218;14.322;2024-03-23T13:05:40;7.75;;;1.85;;
80746;SDS011;76868;50.218;14.322;2024-03-23T13:10:31;3.25;;;1.33;;
80746;SDS011;76868;50.218;14.322;2024-03-23T13:12:56;5.75;;;1.88;;
80746;SDS011;76868;50.218;14.322;2024-03-23T13:15:21;6.70;;;1.90;;
80746;SDS011;76868;50.218;14.322;2024-03-23T13:17:47;8.73;;;2.00;;
80746;SDS011;76868;50.218;14.322;2024-03-23T13:22:40;7.97;;;2.05;;
80746;SDS011;76868;50.218;14.322;2024-03-23T13:27:31;3.28;;;1.77;;
80746;SDS011;76868;50.218;14.322;2024-03-23T13:32:21;4.00;;;1.87;;
80746;SDS011;76868;50.218;14.322;2024-03-23T13:37:15;4.15;;;1.60;;
80746;SDS011;76868;50.218;14.322;2024-03-23T13:42:07;3.08;;;1.73;;
80746;SDS011;76868;50.218;14.322;2024-03-23T13:44:34;5.05;;;1.50;;
80746;SDS011;76868;50.218;14.322;2024-03-23T13:51:54;3.72;;;1.55;;
80746;SDS011;76868;50.218;14.322;2024-03-23T13:54:20;3.42;;;1.20;;
80746;SDS011;76868;50.218;14.322;2024-03-23T13:56:49;4.57;;;1.42;;
80746;SDS011;76868;50.218;14.322;2024-03-23T13:59:19;5.22;;;1.35;;
80746;SDS011;76868;50.218;14.322;2024-03-23T14:01:46;6.05;;;1.45;;
80746;SDS011;76868;50.218;14.322;2024-03-23T14:06:37;3.47;;;1.40;;
80746;SDS011;76868;50.218;14.322;2024-03-23T14:09:03;10.95;;;1.67;;
80746;SDS011;76868;50.218;14.322;2024-03-23T14:13:54;2.67;;;1.17;;
80746;SDS011;76868;50.218;14.322;2024-03-23T14:16:20;2.40;;;1.08;;
80746;SDS011;76868;50.218;14.322;2024-03-23T14:21:13;3.40;;;1.17;;
80746;SDS011;76868;50.218;14.322;2024-03-23T14:23:38;3.00;;;1.13;;
80746;SDS011;76868;50.218;14.322;2024-03-23T14:26:06;3.83;;;1.25;;
80746;SDS011;76868;50.218;14.322;2024-03-23T14:28:31;2.10;;;1.13;;
80746;SDS011;76868;50.218;14.322;2024-03-23T14:33:22;5.65;;;1.70;;
80746;SDS011;76868;50.218;14.322;2024-03-23T14:35:55;6.22;;;1.02;;
80746;SDS011;76868;50.218;14.322;2024-03-23T14:38:22;2.83;;;1.10;;
80746;SDS011;76868;50.218;14.322;2024-03-23T14:40:47;2.65;;;1.33;;
80746;SDS011;76868;50.218;14.322;2024-03-23T14:48:31;4.05;;;1.40;;
80746;SDS011;76868;50.218;14.322;2024-03-23T14:50:57;2.53;;;1.02;;
80746;SDS011;76868;50.218;14.322;2024-03-23T14:53:24;4.18;;;1.30;;
80746;SDS011;76868;50.218;14.322;2024-03-23T14:55:50;3.17;;;1.00;;
80746;SDS011;76868;50.218;14.322;2024-03-23T15:00:40;3.70;;;1.33;;
80746;SDS011;76868;50.218;14.322;2024-03-23T15:03:06;3.13;;;1.30;;
80746;SDS011;76868;50.218;14.322;2024-03-23T15:05:31;3.83;;;1.25;;
80746;SDS011;76868;50.218;14.322;2024-03-23T15:07:56;3.17;;;1.50;;
80746;SDS011;76868;50.218;14.322;2024-03-23T15:10:23;5.70;;;1.33;;
80746;SDS011;76868;50.218;14.322;2024-03-23T15:12:48;16.88;;;2.50;;
80746;SDS011;76868;50.218;14.322;2024-03-23T15:15:14;13.00;;;2.13;;
80746;SDS011;76868;50.218;14.322;2024-03-23T15:17:40;6.68;;;1.90;;
80746;SDS011;76868;50.218;14.322;2024-03-23T15:20:09;4.55;;;1.42;;
80746;SDS011;76868;50.218;14.322;2024-03-23T15:22:36;11.10;;;1.85;;
80746;SDS011;76868;50.218;14.322;2024-03-23T15:27:27;7.03;;;2.13;;
80746;SDS011;76868;50.218;14.322;2024-03-23T15:29:52;4.65;;;1.65;;
80746;SDS011;76868;50.218;14.322;2024-03-23T15:32:18;10.15;;;2.15;;
80746;SDS011;76868;50.218;14.322;2024-03-23T15:34:43;8.30;;;1.50;;
80746;SDS011;76868;50.218;14.322;2024-03-23T15:37:08;10.25;;;1.90;;
80746;SDS011;76868;50.218;14.322;2024-03-23T15:39:33;9.93;;;2.08;;
80746;SDS011;76868;50.218;14.322;2024-03-23T15:41:59;15.60;;;2.97;;
80746;SDS011;76868;50.218;14.322;2024-03-23T15:44:24;8.10;;;1.92;;
80746;SDS011;76868;50.218;14.322;2024-03-23T15:49:15;7.53;;;2.23;;
80746;SDS011;76868;50.218;14.322;2024-03-23T15:51:40;13.40;;;2.58;;
80746;SDS011;76868;50.218;14.322;2024-03-23T15:54:08;8.25;;;1.90;;
80746;SDS011;76868;50.218;14.322;2024-03-23T15:58:59;8.63;;;2.00;;
80746;SDS011;76868;50.218;14.322;2024-03-23T16:01:30;5.97;;;1.80;;
80746;SDS011;76868;50.218;14.322;2024-03-23T16:03:58;6.38;;;1.80;;
80746;SDS011;76868;50.218;14.322;2024-03-23T16:06:24;7.30;;;2.15;;
80746;SDS011;76868;50.218;14.322;2024-03-23T16:08:49;5.72;;;1.70;;
80746;SDS011;76868;50.218;14.322;2024-03-23T16:11:14;7.50;;;1.80;;
80746;SDS011;76868;50.218;14.322;2024-03-23T16:16:05;3.72;;;1.40;;
80746;SDS011;76868;50.218;14.322;2024-03-23T16:18:32;8.45;;;1.63;;
80746;SDS011;76868;50.218;14.322;2024-03-23T16:20:59;8.48;;;1.67;;
80746;SDS011;76868;50.218;14.322;2024-03-23T16:23:26;7.05;;;1.55;;
80746;SDS011;76868;50.218;14.322;2024-03-23T16:25:52;6.10;;;2.13;;
80746;SDS011;76868;50.218;14.322;2024-03-23T16:28:22;6.03;;;1.55;;
80746;SDS011;76868;50.218;14.322;2024-03-23T16:31:01;8.23;;;1.55;;
80746;SDS011;76868;50.218;14.322;2024-03-23T16:33:33;5.90;;;1.60;;
80746;SDS011;76868;50.218;14.322;2024-03-23T16:36:03;7.10;;;1.75;;
80746;SDS011;76868;50.218;14.322;2024-03-23T16:38:30;7.90;;;1.33;;
80746;SDS011;76868;50.218;14.322;2024-03-23T16:43:31;4.45;;;1.58;;
80746;SDS011;76868;50.218;14.322;2024-03-23T16:45:58;6.07;;;1.63;;
80746;SDS011;76868;50.218;14.322;2024-03-23T16:57:40;5.60;;;1.75;;
80746;SDS011;76868;50.218;14.322;2024-03-23T17:00:06;5.07;;;1.60;;
80746;SDS011;76868;50.218;14.322;2024-03-23T17:02:35;3.03;;;1.02;;
80746;SDS011;76868;50.218;14.322;2024-03-23T17:05:03;2.03;;;1.00;;
80746;SDS011;76868;50.218;14.322;2024-03-23T17:07:29;5.68;;;2.33;;
80746;SDS011;76868;50.218;14.322;2024-03-23T17:09:56;3.55;;;1.23;;
80746;SDS011;76868;50.218;14.322;2024-03-23T17:12:21;2.47;;;1.08;;
80746;SDS011;76868;50.218;14.322;2024-03-23T17:14:46;2.50;;;1.20;;
80746;SDS011;76868;50.218;14.322;2024-03-23T17:17:13;8.70;;;1.60;;
80746;SDS011;76868;50.218;14.322;2024-03-23T17:19:38;3.55;;;1.63;;
80746;SDS011;76868;50.218;14.322;2024-03-23T17:22:03;4.75;;;1.60;;
80746;SDS011;76868;50.218;14.322;2024-03-23T17:24:29;2.88;;;1.38;;
80746;SDS011;76868;50.218;14.322;2024-03-23T17:26:54;3.45;;;1.67;;
80746;SDS011;76868;50.218;14.322;2024-03-23T17:29:19;3.22;;;1.70;;
80746;SDS011;76868;50.218;14.322;2024-03-23T17:31:45;6.32;;;2.05;;
80746;SDS011;76868;50.218;14.322;2024-03-23T17:34:10;4.05;;;1.80;;
80746;SDS011;76868;50.218;14.322;2024-03-23T17:36:36;7.38;;;2.55;;
80746;SDS011;76868;50.218;14.322;2024-03-23T17:39:03;17.45;;;2.33;;
80746;SDS011;76868;50.218;14.322;2024-03-23T17:41:28;6.70;;;1.98;;
80746;SDS011;76868;50.218;14.322;2024-03-23T17:43:54;4.80;;;2.20;;
80746;SDS011;76868;50.218;14.322;2024-03-23T17:46:19;3.88;;;2.03;;
80746;SDS011;76868;50.218;14.322;2024-03-23T17:48:44;4.05;;;2.58;;
80746;SDS011;76868;50.218;14.322;2024-03-23T17:51:10;7.05;;;2.33;;
80746;SDS011;76868;50.218;14.322;2024-03-23T17:53:39;4.88;;;2.05;;
80746;SDS011;76868;50.218;14.322;2024-03-23T17:56:05;3.72;;;2.45;;
80746;SDS011;76868;50.218;14.322;2024-03-23T17:58:31;7.60;;;2.22;;
80746;SDS011;76868;50.218;14.322;2024-03-23T18:00:57;6.88;;;2.22;;
80746;SDS011;76868;50.218;14.322;2024-03-23T18:03:22;10.07;;;2.92;;
80746;SDS011;76868;50.218;14.322;2024-03-23T18:05:47;5.70;;;2.83;;
80746;SDS011;76868;50.218;14.322;2024-03-23T18:08:13;6.47;;;2.88;;
80746;SDS011;76868;50.218;14.322;2024-03-23T18:10:38;8.05;;;3.03;;
80746;SDS011;76868;50.218;14.322;2024-03-23T18:13:03;8.73;;;3.35;;
80746;SDS011;76868;50.218;14.322;2024-03-23T18:15:29;6.25;;;2.78;;
80746;SDS011;76868;50.218;14.322;2024-03-23T18:17:54;5.63;;;3.08;;
80746;SDS011;76868;50.218;14.322;2024-03-23T18:20:19;4.97;;;2.17;;
80746;SDS011;76868;50.218;14.322;2024-03-23T18:22:46;7.30;;;3.80;;
80746;SDS011;76868;50.218;14.322;2024-03-23T18:25:13;6.93;;;2.90;;
80746;SDS011;76868;50.218;14.322;2024-03-23T18:27:38;5.30;;;3.45;;
80746;SDS011;76868;50.218;14.322;2024-03-23T18:30:04;9.50;;;4.53;;
80746;SDS011;76868;50.218;14.322;2024-03-23T18:34:56;9.63;;;3.63;;
80746;SDS011;76868;50.218;14.322;2024-03-23T18:37:25;7.75;;;3.60;;
80746;SDS011;76868;50.218;14.322;2024-03-23T18:39:51;7.80;;;4.53;;
80746;SDS011;76868;50.218;14.322;2024-03-23T18:42:16;8.10;;;4.45;;
80746;SDS011;76868;50.218;14.322;2024-03-23T18:44:41;12.88;;;5.55;;
80746;SDS011;76868;50.218;14.322;2024-03-23T18:47:07;15.02;;;6.70;;
80746;SDS011;76868;50.218;14.322;2024-03-23T18:49:32;16.23;;;6.32;;
80746;SDS011;76868;50.218;14.322;2024-03-23T18:51:57;10.68;;;4.65;;
80746;SDS011;76868;50.218;14.322;2024-03-23T18:54:23;13.15;;;5.05;;
80746;SDS011;76868;50.218;14.322;2024-03-23T18:56:49;12.60;;;5.85;;
80746;SDS011;76868;50.218;14.322;2024-03-23T18:59:29;19.30;;;7.68;;
80746;SDS011;76868;50.218;14.322;2024-03-23T19:01:54;12.65;;;5.95;;